createdAt,value
2023-01-31T00:01:48.149Z,100.00
2023-01-31T00:04:22.192Z,100.00
2023-01-31T00:06:54.983Z,100.00
2023-01-31T00:09:27.726Z,100.00
2023-01-31T00:12:00.435Z,100.00
2023-01-31T00:14:33.249Z,100.00
2023-01-31T00:17:05.983Z,100.00
2023-01-31T00:19:40.106Z,100.00
2023-01-31T00:22:12.987Z,100.00
2023-01-31T00:24:45.773Z,100.00
2023-01-31T00:27:19.699Z,100.00
2023-01-31T00:29:52.589Z,100.00
2023-01-31T00:32:26.845Z,100.00
2023-01-31T00:35:00.995Z,100.00
2023-01-31T00:37:33.725Z,100.00
2023-01-31T00:40:08.449Z,100.00
2023-01-31T00:42:41.386Z,100.00
2023-01-31T00:45:16.343Z,100.00
2023-01-31T00:47:49.076Z,100.00
2023-01-31T00:50:23.206Z,100.00
2023-01-31T00:52:56.070Z,100.00
2023-01-31T00:55:31.854Z,100.00
2023-01-31T00:58:04.801Z,100.00
2023-01-31T01:00:37.700Z,100.00
2023-01-31T01:03:10.700Z,100.00
2023-01-31T01:05:44.927Z,100.00
2023-01-31T01:08:17.915Z,100.00
2023-01-31T01:10:50.987Z,100.00
2023-01-31T01:13:23.846Z,100.00
2023-01-31T01:15:56.715Z,100.00
2023-01-31T01:18:29.650Z,100.00
2023-01-31T01:21:09.716Z,100.00
2023-01-31T01:23:43.940Z,100.00
2023-01-31T01:26:18.425Z,100.00
2023-01-31T01:28:52.723Z,100.00
2023-01-31T01:31:30.636Z,100.00
2023-01-31T01:34:06.942Z,100.00
2023-01-31T01:36:41.991Z,100.00
2023-01-31T01:39:14.783Z,100.00
2023-01-31T01:41:48.911Z,100.00
2023-01-31T01:44:46.212Z,100.00
2023-01-31T01:47:31.644Z,100.00
2023-01-31T01:50:11.513Z,100.00
2023-01-31T01:52:49.181Z,100.00
2023-01-31T01:55:26.138Z,100.00
2023-01-31T01:58:05.596Z,100.00
2023-01-31T02:00:39.143Z,100.00
2023-01-31T02:03:12.750Z,100.00
2023-01-31T02:05:48.123Z,100.00
2023-01-31T02:08:25.438Z,100.00
2023-01-31T02:11:03.166Z,100.00
2023-01-31T02:13:36.635Z,100.00
2023-01-31T02:16:09.749Z,100.00
2023-01-31T02:18:44.052Z,100.00
2023-01-31T02:21:55.398Z,100.00
2023-01-31T02:25:01.001Z,100.00
2023-01-31T02:28:01.951Z,100.00
2023-01-31T02:30:59.383Z,100.00
2023-01-31T02:33:41.752Z,100.00
2023-01-31T02:36:28.574Z,100.00
2023-01-31T02:39:12.070Z,100.00
2023-01-31T02:41:51.561Z,100.00
2023-01-31T02:44:49.939Z,100.00
2023-01-31T02:47:34.431Z,100.00
2023-01-31T02:50:15.243Z,100.00
2023-01-31T02:52:55.294Z,100.00
2023-01-31T02:55:52.912Z,100.00
2023-01-31T02:58:29.834Z,100.00
2023-01-31T03:01:05.324Z,100.00
2023-01-31T03:03:39.539Z,100.00
2023-01-31T03:06:54.803Z,100.00
2023-01-31T03:09:38.663Z,100.00
2023-01-31T03:12:34.358Z,100.00
2023-01-31T03:15:21.805Z,100.00
2023-01-31T03:18:00.763Z,100.00
2023-01-31T03:20:40.506Z,100.00
2023-01-31T03:23:20.452Z,100.00
2023-01-31T03:25:54.403Z,100.00
2023-01-31T03:28:32.670Z,100.00
2023-01-31T03:31:11.747Z,100.00
2023-01-31T03:33:47.246Z,100.00
2023-01-31T03:36:29.801Z,100.00
2023-01-31T03:39:17.809Z,100.00
2023-01-31T03:41:58.532Z,100.00
2023-01-31T03:44:40.762Z,100.00
2023-01-31T03:47:20.218Z,100.00
2023-01-31T03:49:54.833Z,100.00
2023-01-31T03:52:34.041Z,100.00
2023-01-31T03:55:16.108Z,100.00
2023-01-31T03:57:53.599Z,100.00
2023-01-31T04:00:27.934Z,100.00
2023-01-31T04:03:14.966Z,100.00
2023-01-31T04:05:49.291Z,100.00
2023-01-31T04:08:22.901Z,100.00
2023-01-31T04:11:10.126Z,100.00
2023-01-31T04:13:43.973Z,100.00
2023-01-31T04:16:17.150Z,100.00
2023-01-31T04:18:50.413Z,100.00
2023-01-31T04:21:23.306Z,100.00
2023-01-31T04:23:56.092Z,100.00
2023-01-31T04:26:30.223Z,100.00
2023-01-31T04:29:03.495Z,100.00
2023-01-31T04:31:36.764Z,100.00
2023-01-31T04:34:10.346Z,100.00
2023-01-31T04:36:43.281Z,100.00
2023-01-31T04:39:16.490Z,100.00
2023-01-31T04:41:50.734Z,100.00
2023-01-31T04:44:23.620Z,100.00
2023-01-31T04:46:56.562Z,100.00
2023-01-31T04:49:29.619Z,100.00
2023-01-31T04:52:02.553Z,100.00
2023-01-31T04:54:36.638Z,100.00
2023-01-31T04:57:11.038Z,100.00
2023-01-31T04:59:43.881Z,100.00
2023-01-31T05:02:17.932Z,100.00
2023-01-31T05:04:51.067Z,100.00
2023-01-31T05:07:23.868Z,100.00
2023-01-31T05:09:56.660Z,100.00
2023-01-31T05:12:31.606Z,100.00
2023-01-31T05:15:07.333Z,100.00
2023-01-31T05:17:40.316Z,100.00
2023-01-31T05:20:13.298Z,100.00
2023-01-31T05:22:48.349Z,100.00
2023-01-31T05:25:21.470Z,100.00
2023-01-31T05:27:55.756Z,100.00
2023-01-31T05:30:28.739Z,100.00
2023-01-31T05:33:01.722Z,100.00
2023-01-31T05:35:34.634Z,100.00
2023-01-31T05:38:07.661Z,100.00
2023-01-31T05:40:40.538Z,100.00
2023-01-31T05:43:14.760Z,100.00
2023-01-31T05:45:49.348Z,100.00
2023-01-31T05:48:22.937Z,100.00
2023-01-31T05:50:55.720Z,100.00
2023-01-31T05:53:28.489Z,100.00
2023-01-31T05:56:01.613Z,100.00
2023-01-31T05:58:35.959Z,100.00
2023-01-31T06:01:08.942Z,100.00
2023-01-31T06:03:41.723Z,100.00
2023-01-31T06:06:15.126Z,100.00
2023-01-31T06:08:48.405Z,100.00
2023-01-31T06:11:23.656Z,100.00
2023-01-31T06:13:58.834Z,100.00
2023-01-31T06:16:32.043Z,100.00
2023-01-31T06:19:04.976Z,100.00
2023-01-31T06:21:37.729Z,100.00
2023-01-31T06:24:10.807Z,100.00
2023-01-31T06:26:43.642Z,100.00
2023-01-31T06:29:17.974Z,100.00
2023-01-31T06:31:50.927Z,100.00
2023-01-31T06:34:23.780Z,100.00
2023-01-31T06:36:57.158Z,100.00
2023-01-31T06:39:30.582Z,100.00
2023-01-31T06:42:03.399Z,100.00
2023-01-31T06:44:37.905Z,100.00
2023-01-31T06:47:10.827Z,100.00
2023-01-31T06:49:43.762Z,100.00
2023-01-31T06:52:16.735Z,100.00
2023-01-31T06:54:49.702Z,100.00
2023-01-31T06:57:22.526Z,100.00
2023-01-31T06:59:56.946Z,100.00
2023-01-31T07:02:30.218Z,100.00
2023-01-31T07:05:03.126Z,100.00
2023-01-31T07:07:35.971Z,100.00
2023-01-31T07:10:09.675Z,100.00
2023-01-31T07:12:42.429Z,100.00
2023-01-31T07:15:16.700Z,100.00
2023-01-31T07:17:49.437Z,100.00
2023-01-31T07:20:22.218Z,100.00
2023-01-31T07:22:56.927Z,100.00
2023-01-31T07:25:32.463Z,100.00
2023-01-31T07:28:05.982Z,100.00
2023-01-31T07:30:43.730Z,100.00
2023-01-31T07:33:16.566Z,100.00
2023-01-31T07:35:49.695Z,100.00
2023-01-31T07:38:22.485Z,100.00
2023-01-31T07:40:55.245Z,100.00
2023-01-31T07:43:28.757Z,100.00
2023-01-31T07:46:03.237Z,100.00
2023-01-31T07:48:36.139Z,100.00
2023-01-31T07:51:10.153Z,100.00
2023-01-31T07:53:43.960Z,100.00
2023-01-31T07:56:18.909Z,100.00
2023-01-31T07:58:51.919Z,100.00
2023-01-31T08:01:45.296Z,100.00
2023-01-31T08:04:22.887Z,100.00
2023-01-31T08:06:57.049Z,100.00
2023-01-31T08:09:30.850Z,100.00
2023-01-31T08:12:03.827Z,100.00
2023-01-31T08:14:36.588Z,100.00
2023-01-31T08:17:11.333Z,100.00
2023-01-31T08:19:44.124Z,100.00
2023-01-31T08:22:16.991Z,100.00
2023-01-31T08:24:49.960Z,100.00
2023-01-31T08:27:22.870Z,100.00
2023-01-31T08:29:56.427Z,100.00
2023-01-31T08:32:30.860Z,100.00
2023-01-31T08:35:03.884Z,100.00
2023-01-31T08:37:36.714Z,100.00
2023-01-31T08:40:11.016Z,100.00
2023-01-31T08:42:44.216Z,100.00
2023-01-31T08:45:17.393Z,100.00
2023-01-31T08:47:54.692Z,100.00
2023-01-31T08:50:29.507Z,100.00
2023-01-31T08:53:04.333Z,100.00
2023-01-31T08:55:37.765Z,100.00
2023-01-31T08:58:10.535Z,100.00
2023-01-31T09:00:43.333Z,100.00
2023-01-31T09:03:17.979Z,100.00
2023-01-31T09:05:50.767Z,100.00
2023-01-31T09:08:23.538Z,100.00
2023-01-31T09:10:57.008Z,100.00
2023-01-31T09:13:31.311Z,100.00
2023-01-31T09:16:09.099Z,100.00
2023-01-31T09:18:43.872Z,100.00
2023-01-31T09:21:18.643Z,100.00
2023-01-31T09:23:56.687Z,100.00
2023-01-31T09:26:29.844Z,100.00
2023-01-31T09:29:02.747Z,100.00
2023-01-31T09:31:35.582Z,100.00
2023-01-31T09:34:09.667Z,100.00
2023-01-31T09:36:42.444Z,100.00
2023-01-31T09:39:15.717Z,100.00
2023-01-31T09:41:53.626Z,100.00
2023-01-31T09:44:30.787Z,100.00
2023-01-31T09:47:10.555Z,100.00
2023-01-31T09:49:49.286Z,100.00
2023-01-31T09:52:23.679Z,100.00
2023-01-31T09:54:56.539Z,100.00
2023-01-31T09:57:41.420Z,100.00
2023-01-31T10:00:22.474Z,100.00
2023-01-31T10:03:38.872Z,100.00
2023-01-31T10:06:19.723Z,100.00
2023-01-31T10:09:00.626Z,100.00
2023-01-31T10:11:39.222Z,100.00
2023-01-31T10:14:23.026Z,100.00
2023-01-31T10:17:02.849Z,100.00
2023-01-31T10:19:44.676Z,100.00
2023-01-31T10:22:23.059Z,100.00
2023-01-31T10:24:59.847Z,100.00
2023-01-31T10:27:46.166Z,100.00
2023-01-31T10:30:24.899Z,100.00
2023-01-31T10:33:02.147Z,99.18
2023-01-31T10:35:41.439Z,97.83
2023-01-31T10:38:20.424Z,97.39
2023-01-31T10:40:59.878Z,97.00
2023-01-31T10:43:40.864Z,96.80
2023-01-31T10:46:16.371Z,96.02
2023-01-31T10:48:49.615Z,96.11
2023-01-31T10:51:38.792Z,95.93
2023-01-31T10:54:27.723Z,96.87
2023-01-31T10:57:01.476Z,97.80
2023-01-31T10:59:37.262Z,97.41
2023-01-31T11:02:19.909Z,97.51
2023-01-31T11:04:54.396Z,97.13
2023-01-31T11:07:30.817Z,97.27
2023-01-31T11:10:23.118Z,97.59
2023-01-31T11:12:59.744Z,98.34
2023-01-31T11:15:38.920Z,97.62
2023-01-31T11:18:15.937Z,98.23
2023-01-31T11:20:49.080Z,98.01
2023-01-31T11:23:26.069Z,99.00
2023-01-31T11:26:00.969Z,99.13
2023-01-31T11:28:37.562Z,99.57
2023-01-31T11:31:20.889Z,99.82
2023-01-31T11:34:01.614Z,99.90
2023-01-31T11:36:43.381Z,99.66
2023-01-31T11:39:29.041Z,100.00
2023-01-31T11:42:13.676Z,99.74
2023-01-31T11:44:57.521Z,99.67
2023-01-31T11:47:41.436Z,99.87
2023-01-31T11:50:22.499Z,99.59
2023-01-31T11:52:57.773Z,99.32
2023-01-31T11:55:38.557Z,99.40
2023-01-31T11:58:20.606Z,99.03
2023-01-31T12:00:56.934Z,99.15
2023-01-31T12:03:30.952Z,99.47
2023-01-31T12:06:05.922Z,99.29
2023-01-31T12:08:40.553Z,99.07
2023-01-31T12:11:30.007Z,99.57
2023-01-31T12:14:14.147Z,99.79
2023-01-31T12:16:49.413Z,99.60
2023-01-31T12:19:33.115Z,99.74
2023-01-31T12:22:13.420Z,99.63
2023-01-31T12:24:58.244Z,99.59
2023-01-31T12:27:42.412Z,100.00
2023-01-31T12:30:29.293Z,100.00
2023-01-31T12:33:30.556Z,100.00
2023-01-31T12:36:17.528Z,100.00
2023-01-31T12:39:04.227Z,100.00
2023-01-31T12:41:41.227Z,100.00
2023-01-31T12:44:32.315Z,100.00
2023-01-31T12:47:23.346Z,100.00
2023-01-31T12:50:06.346Z,100.00
2023-01-31T12:52:47.852Z,100.00
2023-01-31T12:55:29.797Z,100.00
2023-01-31T12:58:19.821Z,100.00
2023-01-31T13:00:59.811Z,100.00
2023-01-31T13:03:44.288Z,100.00
2023-01-31T13:06:21.178Z,100.00
2023-01-31T13:09:07.854Z,100.00
2023-01-31T13:11:48.323Z,100.00
2023-01-31T13:14:23.982Z,100.00
2023-01-31T13:17:01.362Z,100.00
2023-01-31T13:19:40.612Z,100.00
2023-01-31T13:22:19.813Z,100.00
2023-01-31T13:24:59.756Z,100.00
2023-01-31T13:27:39.317Z,100.00
2023-01-31T13:30:23.797Z,99.61
2023-01-31T13:33:00.862Z,99.39
2023-01-31T13:35:42.107Z,99.01
2023-01-31T13:38:21.293Z,99.06
2023-01-31T13:40:55.820Z,98.96
2023-01-31T13:43:28.599Z,98.84
2023-01-31T13:46:05.429Z,99.04
2023-01-31T13:48:43.590Z,99.09
2023-01-31T13:51:22.718Z,99.13
2023-01-31T13:54:02.749Z,99.59
2023-01-31T13:56:39.807Z,99.77
2023-01-31T13:59:12.628Z,99.79
2023-01-31T14:01:49.210Z,100.00
2023-01-31T14:04:31.586Z,100.00
2023-01-31T14:07:26.208Z,99.97
2023-01-31T14:10:38.996Z,99.45
2023-01-31T14:13:26.904Z,99.20
2023-01-31T14:16:00.628Z,99.19
2023-01-31T14:18:44.191Z,99.09
2023-01-31T14:21:49.443Z,98.24
2023-01-31T14:25:05.131Z,97.96
2023-01-31T14:27:42.927Z,97.60
2023-01-31T14:30:38.104Z,97.53
2023-01-31T14:33:37.737Z,97.29
2023-01-31T14:36:45.916Z,96.96
2023-01-31T14:39:44.778Z,97.40
2023-01-31T14:42:40.137Z,96.83
2023-01-31T14:45:34.350Z,96.97
2023-01-31T14:48:19.787Z,96.96
2023-01-31T14:51:14.417Z,96.46
2023-01-31T14:54:15.991Z,96.47
2023-01-31T14:57:14.587Z,96.65
2023-01-31T14:59:55.203Z,96.13
2023-01-31T15:02:42.771Z,96.04
2023-01-31T15:05:19.733Z,96.59
2023-01-31T15:08:05.117Z,96.82
2023-01-31T15:11:03.135Z,96.55
2023-01-31T15:13:47.217Z,96.63
2023-01-31T15:16:28.122Z,96.70
2023-01-31T15:19:07.931Z,96.87
2023-01-31T15:21:50.424Z,97.79
2023-01-31T15:24:27.018Z,97.98
2023-01-31T15:27:01.617Z,98.91
2023-01-31T15:29:46.252Z,98.74
2023-01-31T15:32:22.847Z,98.88
2023-01-31T15:35:02.810Z,98.91
2023-01-31T15:37:38.173Z,98.02
2023-01-31T15:40:19.313Z,98.36
2023-01-31T15:42:52.549Z,97.66
2023-01-31T15:45:27.092Z,97.86
2023-01-31T15:48:01.347Z,97.68
2023-01-31T15:50:34.895Z,98.33
2023-01-31T15:53:17.118Z,98.30
2023-01-31T15:55:52.032Z,98.39
2023-01-31T15:58:27.833Z,99.14
2023-01-31T16:01:02.605Z,99.89
2023-01-31T16:03:43.021Z,100.00
2023-01-31T16:06:20.632Z,100.00
2023-01-31T16:09:03.816Z,100.00
2023-01-31T16:11:38.547Z,100.00
2023-01-31T16:14:12.930Z,100.00
2023-01-31T16:16:48.591Z,100.00
2023-01-31T16:19:26.654Z,100.00
2023-01-31T16:22:00.063Z,100.00
2023-01-31T16:24:34.314Z,100.00
2023-01-31T16:27:09.522Z,100.00
2023-01-31T16:29:44.405Z,100.00
2023-01-31T16:32:22.393Z,100.00
2023-01-31T16:34:57.868Z,100.00
2023-01-31T16:37:33.804Z,100.00
2023-01-31T16:40:20.901Z,100.00
2023-01-31T16:43:10.546Z,100.00
2023-01-31T16:45:51.781Z,100.00
2023-01-31T16:48:27.758Z,100.00
2023-01-31T16:51:02.500Z,100.00
2023-01-31T16:53:39.996Z,100.00
2023-01-31T16:56:23.823Z,100.00
2023-01-31T16:58:58.573Z,100.00
2023-01-31T17:01:33.553Z,100.00
2023-01-31T17:04:20.433Z,100.00
2023-01-31T17:07:04.011Z,100.00
2023-01-31T17:09:36.899Z,100.00
2023-01-31T17:12:19.718Z,100.00
2023-01-31T17:14:57.138Z,100.00
2023-01-31T17:17:34.303Z,100.00
2023-01-31T17:20:08.149Z,100.00
2023-01-31T17:22:42.220Z,100.00
2023-01-31T17:25:19.712Z,100.00
2023-01-31T17:27:54.114Z,100.00
2023-01-31T17:30:27.936Z,100.00
2023-01-31T17:33:01.117Z,100.00
2023-01-31T17:35:37.524Z,100.00
2023-01-31T17:38:10.370Z,100.00
2023-01-31T17:40:44.966Z,100.00
2023-01-31T17:43:22.440Z,100.00
2023-01-31T17:45:55.351Z,100.00
2023-01-31T17:48:28.134Z,100.00
2023-01-31T17:51:00.978Z,100.00
2023-01-31T17:53:40.491Z,100.00
2023-01-31T17:56:20.973Z,100.00
2023-01-31T17:58:55.189Z,100.00
2023-01-31T18:01:27.969Z,100.00
2023-01-31T18:04:00.817Z,100.00
2023-01-31T18:06:34.269Z,100.00
2023-01-31T18:09:09.132Z,100.00
2023-01-31T18:11:43.827Z,100.00
2023-01-31T18:14:18.066Z,100.00
2023-01-31T18:16:51.394Z,100.00
2023-01-31T18:19:24.183Z,100.00
2023-01-31T18:21:57.200Z,100.00
2023-01-31T18:24:31.128Z,100.00
2023-01-31T18:27:03.936Z,100.00
2023-01-31T18:29:38.039Z,100.00
2023-01-31T18:32:11.001Z,100.00
2023-01-31T18:34:43.824Z,100.00
2023-01-31T18:37:20.307Z,100.00
2023-01-31T18:39:54.061Z,100.00
2023-01-31T18:42:26.959Z,100.00
2023-01-31T18:45:02.584Z,100.00
2023-01-31T18:47:35.439Z,100.00
2023-01-31T18:50:09.538Z,100.00
2023-01-31T18:52:43.927Z,100.00
2023-01-31T18:55:16.787Z,100.00
2023-01-31T18:57:49.591Z,100.00
2023-01-31T19:00:24.567Z,100.00
2023-01-31T19:02:58.506Z,100.00
2023-01-31T19:05:31.425Z,100.00
2023-01-31T19:08:04.244Z,100.00
2023-01-31T19:10:37.068Z,100.00
2023-01-31T19:13:09.844Z,100.00
2023-01-31T19:15:43.992Z,100.00
2023-01-31T19:18:17.248Z,100.00
2023-01-31T19:20:50.007Z,100.00
2023-01-31T19:23:23.513Z,100.00
2023-01-31T19:25:56.498Z,100.00
2023-01-31T19:28:29.273Z,100.00
2023-01-31T19:31:06.449Z,100.00
2023-01-31T19:33:40.106Z,100.00
2023-01-31T19:36:14.243Z,100.00
2023-01-31T19:38:47.867Z,100.00
2023-01-31T19:41:22.204Z,100.00
2023-01-31T19:43:57.268Z,100.00
2023-01-31T19:46:33.095Z,100.00
2023-01-31T19:49:06.567Z,100.00
2023-01-31T19:51:39.350Z,100.00
2023-01-31T19:54:15.696Z,100.00
2023-01-31T19:56:48.464Z,100.00
2023-01-31T19:59:21.264Z,100.00
2023-01-31T20:01:55.452Z,100.00
2023-01-31T20:04:30.825Z,100.00
2023-01-31T20:07:03.599Z,100.00
2023-01-31T20:09:36.405Z,100.00
2023-01-31T20:12:09.306Z,100.00
2023-01-31T20:14:42.079Z,100.00
2023-01-31T20:17:16.232Z,100.00
2023-01-31T20:19:48.992Z,100.00
2023-01-31T20:22:22.939Z,100.00
2023-01-31T20:24:57.054Z,100.00
2023-01-31T20:27:33.686Z,100.00
2023-01-31T20:30:07.913Z,100.00
2023-01-31T20:32:42.004Z,100.00
2023-01-31T20:35:14.849Z,100.00
2023-01-31T20:37:47.777Z,100.00
2023-01-31T20:40:21.013Z,100.00
2023-01-31T20:42:53.955Z,100.00
2023-01-31T20:45:29.078Z,100.00
2023-01-31T20:48:05.885Z,100.00
2023-01-31T20:50:40.549Z,100.00
2023-01-31T20:53:19.375Z,100.00
2023-01-31T20:55:57.624Z,100.00
2023-01-31T20:58:32.397Z,100.00
2023-01-31T21:01:06.842Z,100.00
2023-01-31T21:03:41.167Z,100.00
2023-01-31T21:06:14.057Z,100.00
2023-01-31T21:08:48.537Z,100.00
2023-01-31T21:11:21.549Z,100.00
2023-01-31T21:13:54.362Z,100.00
2023-01-31T21:16:27.419Z,100.00
2023-01-31T21:19:01.568Z,100.00
2023-01-31T21:21:34.369Z,100.00
2023-01-31T21:24:08.350Z,100.00
2023-01-31T21:26:41.191Z,100.00
2023-01-31T21:29:14.039Z,100.00
2023-01-31T21:31:46.987Z,100.00
2023-01-31T21:34:23.032Z,100.00
2023-01-31T21:36:57.737Z,100.00
2023-01-31T21:39:30.522Z,100.00
2023-01-31T21:42:19.512Z,100.00
2023-01-31T21:44:52.355Z,100.00
2023-01-31T21:47:25.191Z,100.00
2023-01-31T21:49:59.335Z,100.00
2023-01-31T21:52:32.263Z,100.00
2023-01-31T21:55:05.607Z,100.00
2023-01-31T21:57:38.544Z,100.00
2023-01-31T22:00:12.783Z,100.00
2023-01-31T22:02:45.601Z,100.00
2023-01-31T22:05:19.799Z,100.00
2023-01-31T22:07:52.553Z,100.00
2023-01-31T22:10:25.339Z,100.00
2023-01-31T22:12:58.148Z,100.00
2023-01-31T22:15:30.972Z,100.00
2023-01-31T22:18:03.746Z,100.00
2023-01-31T22:20:38.716Z,100.00
2023-01-31T22:23:11.595Z,100.00
2023-01-31T22:25:44.345Z,100.00
2023-01-31T22:28:17.338Z,100.00
2023-01-31T22:30:57.025Z,100.00
2023-01-31T22:33:30.458Z,100.00
2023-01-31T22:36:05.578Z,100.00
2023-01-31T22:38:38.949Z,100.00
2023-01-31T22:41:13.650Z,100.00
2023-01-31T22:43:48.160Z,100.00
2023-01-31T22:46:23.596Z,100.00
2023-01-31T22:48:56.658Z,100.00
2023-01-31T22:51:31.163Z,100.00
2023-01-31T22:54:03.975Z,100.00
2023-01-31T22:56:36.759Z,100.00
2023-01-31T22:59:10.855Z,100.00
2023-01-31T23:01:43.798Z,100.00
2023-01-31T23:04:19.150Z,100.00
2023-01-31T23:06:53.400Z,100.00
2023-01-31T23:09:26.229Z,100.00
2023-01-31T23:11:58.995Z,100.00
2023-01-31T23:14:32.150Z,100.00
2023-01-31T23:17:22.406Z,100.00
2023-01-31T23:19:57.188Z,100.00
2023-01-31T23:22:31.387Z,100.00
2023-01-31T23:25:05.407Z,100.00
2023-01-31T23:27:38.712Z,100.00
2023-01-31T23:30:13.631Z,100.00
2023-01-31T23:32:46.432Z,100.00
2023-01-31T23:35:19.399Z,100.00
2023-01-31T23:37:53.943Z,100.00
2023-01-31T23:40:26.713Z,100.00
2023-01-31T23:42:59.564Z,100.00
2023-01-31T23:45:32.389Z,100.00
2023-01-31T23:48:05.838Z,100.00
2023-01-31T23:50:38.621Z,100.00
2023-01-31T23:53:12.713Z,100.00
2023-01-31T23:55:45.458Z,100.00
2023-01-31T23:58:18.259Z,100.00
